Time;durP1;ratioP1;P1;durP2;ratioP2;P2;SDS_P1;SDS_P2;PMS_P1;PMS_P2;Temp;Humidity;BMP_temperature;BMP_pressure;BME280_temperature;BME280_humidity;BME280_pressure;Samples;Min_cycle;Max_cycle;Signal;HPM_P1;HPM_P2
2022/12/13 00:00:09;;;;;;;57.83;25.90;;;;;;;-6.61;100.00;101093.84;5016872;28;20037;-64
2022/12/13 00:02:34;;;;;;;65.68;28.67;;;;;;;-6.63;100.00;101097.16;5000725;28;20037;-62
2022/12/13 00:05:00;;;;;;;61.80;29.05;;;;;;;-6.17;100.00;101171.59;5026492;28;20108;-62
2022/12/13 00:07:25;;;;;;;63.35;29.05;;;;;;;-6.65;100.00;101094.53;5016690;28;20040;-64
2022/12/13 00:09:50;;;;;;;60.35;28.48;;;;;;;-6.25;100.00;101175.53;5012939;28;20041;-63
2022/12/13 00:12:15;;;;;;;62.75;29.83;;;;;;;-6.87;100.00;101064.66;5014118;28;20034;-63
2022/12/13 00:14:41;;;;;;;64.05;28.67;;;;;;;-6.27;100.00;101171.22;5014187;28;20041;-62
2022/12/13 00:17:06;;;;;;;58.22;28.05;;;;;;;-6.28;100.00;101168.59;5012900;28;20478;-63
2022/12/13 00:19:31;;;;;;;59.47;27.38;;;;;;;-6.29;100.00;101180.53;5013670;28;20401;-63
2022/12/13 00:21:57;;;;;;;60.50;28.42;;;;;;;-6.93;100.00;101063.53;5012657;28;20497;-63
2022/12/13 00:24:22;;;;;;;66.07;29.40;;;;;;;-6.37;100.00;101158.88;5012726;28;20042;-63
2022/12/13 00:26:47;;;;;;;55.33;28.58;;;;;;;-6.27;100.00;101165.22;5013571;28;20026;-63
2022/12/13 00:29:13;;;;;;;59.17;28.75;;;;;;;-6.74;100.00;101083.06;5013817;28;20065;-65
2022/12/13 00:31:38;;;;;;;60.38;28.45;;;;;;;-6.55;100.00;101121.38;5013994;28;20033;-64
2022/12/13 00:34:03;;;;;;;54.05;28.35;;;;;;;-6.85;100.00;101062.13;5013702;28;20042;-62
2022/12/13 00:36:29;;;;;;;59.25;29.00;;;;;;;-6.49;100.00;101132.75;5013897;28;20060;-64
2022/12/13 00:39:03;;;;;;;58.85;30.35;;;;;;;-6.32;100.00;101166.72;5018007;28;20443;-65
2022/12/13 00:41:31;;;;;;;68.38;28.75;;;;;;;-6.65;100.00;101104.78;5015569;28;20065;-64
2022/12/13 00:43:56;;;;;;;61.13;28.80;;;;;;;-6.37;100.00;101145.19;5033754;28;20052;-63
2022/12/13 00:46:22;;;;;;;56.85;28.23;;;;;;;-6.64;100.00;101103.97;5033510;28;20609;-64
2022/12/13 00:48:50;;;;;;;56.80;28.55;;;;;;;-6.80;100.00;101067.47;5015874;28;20080;-63
2022/12/13 00:51:15;;;;;;;63.05;30.05;;;;;;;-6.36;100.00;101144.34;5015823;28;20365;-64
2022/12/13 00:53:41;;;;;;;60.30;29.15;;;;;;;-6.64;100.00;101096.28;5033352;28;20044;-63
2022/12/13 00:56:11;;;;;;;57.60;28.70;;;;;;;-6.38;100.00;101154.53;5033201;28;20480;-64
2022/12/13 00:58:36;;;;;;;59.55;29.42;;;;;;;-6.73;100.00;101088.22;5033271;28;20037;-65
2022/12/13 01:01:03;;;;;;;63.90;29.35;;;;;;;-6.78;100.00;101079.50;5033296;28;20136;-63
2022/12/13 01:03:29;;;;;;;62.53;28.83;;;;;;;-6.40;100.00;101153.63;5015642;28;20069;-63
2022/12/13 01:05:54;;;;;;;55.15;29.00;;;;;;;-6.40;100.00;101142.50;5033456;28;20134;-64
2022/12/13 01:08:20;;;;;;;58.28;27.98;;;;;;;-6.48;100.00;101134.47;5033894;28;20088;-63
2022/12/13 01:10:46;;;;;;;54.13;27.98;;;;;;;-6.43;100.00;101148.38;5015939;28;20116;-64
2022/12/13 01:13:12;;;;;;;63.10;29.77;;;;;;;-6.81;100.00;101081.06;5016120;28;20128;-64
2022/12/13 01:15:46;;;;;;;58.08;29.48;;;;;;;-6.46;100.00;101144.81;5015318;28;20156;-64
2022/12/13 01:18:13;;;;;;;60.15;28.73;;;;;;;-6.91;100.00;101069.56;5032602;28;20037;-64
2022/12/13 01:20:39;;;;;;;54.00;28.02;;;;;;;-6.61;100.00;101131.38;5032474;28;20031;-65
2022/12/13 01:23:05;;;;;;;57.40;28.98;;;;;;;-6.71;100.00;101109.63;5014966;28;20029;-65
2022/12/13 01:25:32;;;;;;;59.88;28.02;;;;;;;-6.52;100.00;101137.75;5014826;28;20033;-62
2022/12/13 01:27:58;;;;;;;57.17;28.73;;;;;;;-6.55;100.00;101129.94;5032863;28;20136;-63
2022/12/13 01:30:23;;;;;;;63.10;29.13;;;;;;;-6.54;100.00;101130.81;5032757;28;20032;-65
2022/12/13 01:32:49;;;;;;;63.38;28.75;;;;;;;-6.73;100.00;101102.72;5014946;28;20037;-63
2022/12/13 01:35:14;;;;;;;57.58;28.25;;;;;;;-6.57;100.00;101135.81;5032651;28;20079;-64
2022/12/13 01:37:39;;;;;;;59.80;29.10;;;;;;;-6.90;100.00;101076.44;5031479;28;20037;-65
2022/12/13 01:40:05;;;;;;;53.90;27.35;;;;;;;-6.62;100.00;101122.81;5032246;28;20042;-65
2022/12/13 01:42:31;;;;;;;62.95;28.95;;;;;;;-7.06;100.00;101051.91;5014740;28;20064;-64
2022/12/13 01:45:24;;;;;;;60.13;29.05;;;;;;;-6.56;100.00;101120.50;5032151;28;20072;-65
2022/12/13 01:47:54;;;;;;;54.38;28.48;;;;;;;-6.99;100.00;101059.03;5032476;28;20036;-65
2022/12/13 01:50:29;;;;;;;58.80;27.42;;;;;;;-6.73;100.00;101105.28;5014590;28;20029;-64
2022/12/13 01:52:55;;;;;;;61.22;28.42;;;;;;;-6.58;100.00;101141.75;5015112;28;20033;-65
2022/12/13 01:55:21;;;;;;;63.47;29.08;;;;;;;-6.59;100.00;101133.19;5014936;28;20041;-65
2022/12/13 01:57:48;;;;;;;58.85;29.85;;;;;;;-6.58;100.00;101144.31;5015247;28;20083;-64
2022/12/13 02:00:14;;;;;;;54.83;27.05;;;;;;;-6.63;100.00;101143.25;5032104;28;20037;-65
2022/12/13 02:02:40;;;;;;;47.67;25.95;;;;;;;-7.14;100.00;101049.84;5031869;28;20071;-64
2022/12/13 02:05:25;;;;;;;52.17;25.55;;;;;;;-7.23;100.00;101037.53;5031825;28;20030;-65
2022/12/13 02:07:51;;;;;;;54.03;26.38;;;;;;;-6.70;100.00;101131.88;5014244;28;20488;-64
2022/12/13 02:10:17;;;;;;;49.63;26.95;;;;;;;-6.74;100.00;101132.56;5013911;28;20037;-64
2022/12/13 02:12:43;;;;;;;53.80;28.00;;;;;;;-6.73;100.00;101136.00;5013994;28;20116;-65
2022/12/13 02:15:13;;;;;;;49.95;26.25;;;;;;;-6.81;100.00;101122.88;5014032;28;20116;-64
2022/12/13 02:17:57;;;;;;;;;;;;;;;-6.75;100.00;101129.94;5032313;28;20083;-64
2022/12/13 02:20:45;;;;;;;57.70;26.20;;;;;;;-6.78;100.00;101120.47;5031923;28;20368;-64
2022/12/13 02:23:38;;;;;;;51.78;24.88;;;;;;;-6.81;100.00;101138.25;5014100;28;20033;-64
2022/12/13 02:26:28;;;;;;;52.42;26.40;;;;;;;-6.82;100.00;101127.94;5031634;28;20025;-65
2022/12/13 02:29:26;;;;;;;52.65;26.35;;;;;;;-6.98;100.00;101098.28;5013961;28;20396;-65
2022/12/13 02:32:05;;;;;;;49.67;25.63;;;;;;;-6.85;100.00;101128.69;5014363;28;20033;-64
2022/12/13 02:34:46;;;;;;;50.67;25.13;;;;;;;-6.88;100.00;101119.19;5031462;28;20372;-64
2022/12/13 02:37:23;;;;;;;58.53;26.13;;;;;;;-6.93;100.00;101119.81;4997671;28;20697;-65
2022/12/13 02:39:59;;;;;;;55.17;26.45;;;;;;;-6.87;100.00;101110.72;5013943;28;20083;-64
2022/12/13 02:42:30;;;;;;;49.60;24.85;;;;;;;-7.44;100.00;101014.50;5013841;28;20416;-64
2022/12/13 02:45:04;;;;;;;55.92;26.40;;;;;;;-7.01;100.00;101087.94;5013689;28;20025;-64
2022/12/13 02:47:29;;;;;;;50.55;26.30;;;;;;;-6.93;100.00;101096.78;5031490;28;20033;-65
2022/12/13 02:49:58;;;;;;;51.85;26.05;;;;;;;-7.25;100.00;101051.97;5015984;28;20045;-65
2022/12/13 02:52:27;;;;;;;53.97;26.05;;;;;;;-7.42;100.00;101024.81;5017789;28;20523;-64
2022/12/13 02:54:56;;;;;;;46.03;24.98;;;;;;;-6.89;100.00;101108.91;5017555;28;20480;-65
2022/12/13 02:57:38;;;;;;;53.58;26.25;;;;;;;-7.07;100.00;101083.44;5035402;28;20034;-65
2022/12/13 03:00:08;;;;;;;57.60;26.67;;;;;;;-7.46;100.00;101018.69;5017663;28;20022;-64
2022/12/13 03:02:54;;;;;;;51.38;25.27;;;;;;;-6.90;100.00;101108.03;5035650;28;20061;-65
2022/12/13 03:09:07;;;;;;;47.35;24.20;;;;;;;-6.94;100.00;101110.38;5035144;28;20126;-65
2022/12/13 03:15:33;;;;;;;42.80;23.65;;;;;;;-7.02;100.00;101115.19;5034788;28;20052;-64
2022/12/13 03:18:14;;;;;;;55.13;25.58;;;;;;;-7.48;100.00;101028.00;5017171;28;20022;-65
2022/12/13 03:20:51;;;;;;;52.85;26.58;;;;;;;-7.51;100.00;101020.19;5035436;28;20131;-65
2022/12/13 03:23:18;;;;;;;40.90;23.67;;;;;;;-7.44;100.00;101044.31;5034839;28;20416;-64
2022/12/13 03:25:44;;;;;;;44.15;23.08;;;;;;;-7.48;100.00;101038.22;5034491;28;20032;-65
2022/12/13 03:28:11;;;;;;;44.85;24.60;;;;;;;-7.17;100.00;101098.31;5017033;28;20104;-65
2022/12/13 03:30:37;;;;;;;49.25;25.67;;;;;;;-7.11;100.00;101113.91;5035054;28;20457;-66
2022/12/13 03:33:02;;;;;;;43.97;23.23;;;;;;;-7.53;100.00;101037.13;5016957;28;20121;-64
2022/12/13 03:35:28;;;;;;;49.38;25.15;;;;;;;-7.10;100.00;101119.13;5017247;28;20033;-65
2022/12/13 03:37:53;;;;;;;51.70;23.75;;;;;;;-7.12;100.00;101107.06;5034652;28;20033;-64
2022/12/13 03:40:19;;;;;;;60.33;26.05;;;;;;;-7.16;100.00;101107.75;5034260;28;20049;-64
2022/12/13 03:42:45;;;;;;;50.33;25.20;;;;;;;-7.25;100.00;101092.00;5016710;28;20104;-64
2022/12/13 03:45:10;;;;;;;52.85;25.33;;;;;;;-7.18;100.00;101102.53;5000986;28;20444;-65
2022/12/13 03:47:36;;;;;;;52.67;23.80;;;;;;;-7.15;100.00;101104.38;5017665;28;20117;-66
2022/12/13 03:50:01;;;;;;;53.95;26.10;;;;;;;-7.20;100.00;101086.28;5035106;28;20120;-65
2022/12/13 03:52:26;;;;;;;55.05;24.15;;;;;;;-7.17;100.00;101099.19;5034884;28;20069;-65
2022/12/13 03:54:52;;;;;;;51.78;25.20;;;;;;;-7.17;100.00;101101.75;5034590;28;20047;-64
2022/12/13 03:57:17;;;;;;;54.58;24.13;;;;;;;-7.17;100.00;101098.31;5035032;28;20038;-64
2022/12/13 03:59:42;;;;;;;49.03;25.63;;;;;;;-7.70;100.00;101009.97;5035023;28;20450;-65
2022/12/13 04:02:08;;;;;;;44.80;24.67;;;;;;;-7.31;100.00;101089.19;5033621;28;20083;-64
2022/12/13 04:04:33;;;;;;;52.08;24.63;;;;;;;-7.31;100.00;101092.63;5034192;28;20041;-65
2022/12/13 04:06:58;;;;;;;44.15;24.63;;;;;;;-7.36;100.00;101073.66;5033996;28;20095;-65
2022/12/13 04:09:23;;;;;;;46.00;25.50;;;;;;;-7.67;100.00;101020.31;5033994;28;20037;-66
2022/12/13 04:14:32;;;;;;;53.20;25.63;;;;;;;-7.49;100.00;101066.25;5034217;28;20503;-64
2022/12/13 04:16:58;;;;;;;50.78;24.63;;;;;;;-7.26;100.00;101105.59;5016065;28;20021;-65
2022/12/13 04:19:23;;;;;;;54.63;24.65;;;;;;;-7.26;100.00;101093.69;5034130;28;20079;-64
2022/12/13 04:21:49;;;;;;;49.85;25.27;;;;;;;-7.30;100.00;101108.84;5015991;28;20049;-65
2022/12/13 04:24:15;;;;;;;49.20;24.25;;;;;;;-7.38;100.00;101084.63;5016045;28;20033;-65
2022/12/13 04:26:40;;;;;;;49.38;24.35;;;;;;;-7.33;100.00;101090.81;5033663;28;20072;-65
2022/12/13 04:29:06;;;;;;;55.45;25.73;;;;;;;-7.76;100.00;101016.53;5016159;28;20144;-65
2022/12/13 04:31:31;;;;;;;54.75;27.13;;;;;;;-7.32;100.00;101087.41;5033746;28;20033;-65
2022/12/13 04:33:56;;;;;;;46.42;24.65;;;;;;;-7.33;100.00;101083.13;5033616;28;20040;-66
2022/12/13 04:36:21;;;;;;;52.20;25.80;;;;;;;-7.34;100.00;101083.94;5033825;28;20052;-63
2022/12/13 04:38:47;;;;;;;51.38;24.67;;;;;;;-7.50;100.00;101067.09;5033126;28;20496;-64
2022/12/13 04:41:16;;;;;;;45.38;23.25;;;;;;;-7.36;100.00;101094.13;5015531;28;20069;-64
2022/12/13 04:43:41;;;;;;;47.13;23.30;;;;;;;-7.41;100.00;101077.69;5033854;28;20030;-65
2022/12/13 04:46:07;;;;;;;46.20;25.40;;;;;;;-8.16;100.00;100945.81;5015706;28;20108;-65
2022/12/13 04:48:33;;;;;;;46.13;24.05;;;;;;;-7.69;100.00;101029.63;5033620;28;20041;-66
2022/12/13 04:50:59;;;;;;;48.88;23.77;;;;;;;-7.53;100.00;101080.56;5033476;28;20025;-67
2022/12/13 04:53:24;;;;;;;44.25;23.67;;;;;;;-7.42;100.00;101091.28;5033273;28;20171;-64
2022/12/13 04:55:49;;;;;;;41.97;22.20;;;;;;;-7.95;100.00;101012.28;5033103;28;20120;-64
2022/12/13 04:58:15;;;;;;;48.38;24.17;;;;;;;-7.48;100.00;101109.78;5033327;28;20037;-64
2022/12/13 05:00:40;;;;;;;47.47;23.55;;;;;;;-7.51;100.00;101078.09;5015456;28;20059;-64
2022/12/13 05:03:06;;;;;;;48.20;23.35;;;;;;;-7.51;100.00;101091.75;5033206;28;20049;-64
2022/12/13 05:05:31;;;;;;;51.20;24.58;;;;;;;-7.89;100.00;101027.00;5015478;28;20029;-64
2022/12/13 05:07:56;;;;;;;53.85;24.10;;;;;;;-7.54;100.00;101083.09;5033100;28;20366;-65
2022/12/13 05:10:22;;;;;;;50.72;23.30;;;;;;;-7.53;100.00;101087.41;5033072;28;20041;-65
2022/12/13 05:12:47;;;;;;;47.05;24.05;;;;;;;-7.95;100.00;101016.50;5033425;28;20414;-66
2022/12/13 05:15:12;;;;;;;45.53;23.63;;;;;;;-7.57;100.00;101086.38;5032963;28;20215;-65
2022/12/13 05:17:38;;;;;;;46.40;22.35;;;;;;;-7.82;100.00;101040.09;5032972;28;20045;-64
2022/12/13 05:20:04;;;;;;;42.97;23.83;;;;;;;-8.04;100.00;101005.09;5032863;28;20036;-65
2022/12/13 05:22:29;;;;;;;50.45;24.23;;;;;;;-8.06;100.00;100993.06;5032756;28;20037;-67
2022/12/13 05:24:54;;;;;;;51.13;23.33;;;;;;;-7.70;100.00;101055.97;5032661;28;20400;-67
2022/12/13 05:27:20;;;;;;;51.00;24.67;;;;;;;-7.67;100.00;101053.53;5032941;28;20057;-65
2022/12/13 05:29:45;;;;;;;43.67;22.80;;;;;;;-7.73;100.00;101049.84;5032841;28;20037;-65
2022/12/13 05:32:10;;;;;;;43.67;23.10;;;;;;;-8.13;100.00;100991.03;5032435;28;20396;-64
2022/12/13 05:34:36;;;;;;;52.08;23.42;;;;;;;-7.73;100.00;101066.06;5014808;28;20128;-64
2022/12/13 05:37:01;;;;;;;45.22;22.95;;;;;;;-7.70;100.00;101072.97;5015008;28;20519;-66
2022/12/13 05:39:26;;;;;;;46.20;23.67;;;;;;;-7.70;100.00;101070.44;5032421;28;20441;-67
2022/12/13 05:41:53;;;;;;;45.03;23.80;;;;;;;-7.79;100.00;101059.81;5032803;28;20050;-64
2022/12/13 05:44:18;;;;;;;52.05;22.65;;;;;;;-8.05;100.00;101017.78;5014547;28;20036;-64
2022/12/13 05:46:43;;;;;;;43.35;23.20;;;;;;;-8.20;100.00;100986.47;5031891;28;20033;-67
2022/12/13 05:49:09;;;;;;;43.55;23.25;;;;;;;-8.22;100.00;100978.72;4982015;28;20061;-66
2022/12/13 05:51:34;;;;;;;46.22;22.67;;;;;;;-7.76;100.00;101082.97;5032067;28;20087;-66
2022/12/13 05:53:59;;;;;;;46.50;22.75;;;;;;;-8.26;100.00;100983.63;5032657;28;20044;-65
2022/12/13 05:56:25;;;;;;;50.30;24.13;;;;;;;-8.02;100.00;101040.91;4999037;28;20037;-66
2022/12/13 05:58:50;;;;;;;47.20;24.33;;;;;;;-8.12;100.00;100992.78;5033134;28;20033;-65
2022/12/13 06:01:16;;;;;;;46.97;25.10;;;;;;;-7.82;100.00;101052.03;5010545;28;20076;-65
2022/12/13 06:03:42;;;;;;;44.95;23.17;;;;;;;-7.71;100.00;101079.78;5032479;28;20121;-65
2022/12/13 06:06:08;;;;;;;47.72;23.63;;;;;;;-7.83;100.00;101046.03;5031768;28;20040;-67
2022/12/13 06:08:34;;;;;;;53.17;24.33;;;;;;;-8.11;100.00;100997.94;4997263;28;20128;-65
2022/12/13 06:11:01;;;;;;;44.22;23.40;;;;;;;-8.20;100.00;100974.56;5010937;28;20117;-66
2022/12/13 06:13:26;;;;;;;43.03;23.80;;;;;;;-7.78;100.00;101052.22;5027696;28;20033;-66
2022/12/13 06:15:52;;;;;;;44.50;22.73;;;;;;;-7.76;100.00;101036.97;5027623;28;20037;-66
2022/12/13 06:18:18;;;;;;;49.40;24.88;;;;;;;-7.78;100.00;101041.13;5014782;28;20025;-64
2022/12/13 06:20:43;;;;;;;47.70;23.33;;;;;;;-8.05;100.00;100984.56;5032509;28;20465;-65
2022/12/13 06:23:08;;;;;;;49.35;24.35;;;;;;;-7.76;100.00;101057.41;5015175;28;20396;-66
2022/12/13 06:25:35;;;;;;;45.92;24.67;;;;;;;-7.66;100.00;101056.97;5031779;28;20052;-65
2022/12/13 06:28:01;;;;;;;44.53;24.98;;;;;;;-7.66;100.00;101067.22;5020863;28;20062;-63
2022/12/13 06:30:26;;;;;;;44.15;25.00;;;;;;;-7.66;100.00;101068.09;5032459;28;20044;-64
2022/12/13 06:32:51;;;;;;;55.15;27.10;;;;;;;-7.66;100.00;101064.66;5031761;28;20041;-66
2022/12/13 06:35:17;;;;;;;52.38;26.02;;;;;;;-7.70;100.00;101055.97;5031734;28;20025;-67
2022/12/13 06:37:42;;;;;;;49.92;24.05;;;;;;;-7.71;100.00;101066.13;5031948;28;20037;-65
2022/12/13 06:40:08;;;;;;;49.05;25.38;;;;;;;-8.19;100.00;100975.44;5013352;28;20050;-67
2022/12/13 06:42:33;;;;;;;53.78;24.98;;;;;;;-8.20;100.00;100971.16;5031804;28;20040;-64
2022/12/13 06:44:59;;;;;;;49.47;25.92;;;;;;;-7.70;100.00;101062.75;5031409;28;20041;-66
2022/12/13 06:47:24;;;;;;;53.35;24.45;;;;;;;-7.74;100.00;101059.22;5014363;28;20030;-65
2022/12/13 06:49:50;;;;;;;50.20;24.55;;;;;;;-7.71;100.00;101082.34;5031799;28;20473;-66
2022/12/13 06:52:15;;;;;;;48.03;24.70;;;;;;;-8.10;100.00;101011.59;5013123;28;20041;-65
2022/12/13 06:54:42;;;;;;;52.65;26.33;;;;;;;-7.95;100.00;101027.59;5029602;28;20040;-65
2022/12/13 06:57:08;;;;;;;44.75;23.52;;;;;;;-7.84;100.00;101046.81;5030537;28;20045;-64
2022/12/13 06:59:33;;;;;;;56.35;24.38;;;;;;;-7.71;100.00;101081.47;5030711;28;20029;-63
2022/12/13 07:01:58;;;;;;;48.60;23.65;;;;;;;-7.94;100.00;101046.38;5028651;28;20042;-63
2022/12/13 07:04:23;;;;;;;51.10;24.77;;;;;;;-7.80;100.00;101065.72;5012606;28;20040;-64
2022/12/13 07:06:49;;;;;;;48.95;25.73;;;;;;;-7.81;100.00;101054.63;5030039;28;20034;-65
2022/12/13 07:09:14;;;;;;;47.67;25.23;;;;;;;-7.76;100.00;101050.59;5031271;28;20034;-66
2022/12/13 07:11:40;;;;;;;49.47;25.70;;;;;;;-7.74;100.00;101069.44;5031293;28;20113;-62
2022/12/13 07:14:05;;;;;;;52.88;26.70;;;;;;;-7.90;100.00;101032.91;5031396;28;20069;-64
2022/12/13 07:16:30;;;;;;;53.38;26.15;;;;;;;-7.92;100.00;101026.84;5030386;28;20040;-60
2022/12/13 07:19:00;;;;;;;47.42;24.83;;;;;;;-8.20;100.00;100979.66;5013151;28;20037;-62
2022/12/13 07:21:26;;;;;;;54.58;26.90;;;;;;;-7.67;100.00;101075.66;5030998;28;20041;-61
2022/12/13 07:23:52;;;;;;;49.55;25.98;;;;;;;-7.78;100.00;101065.00;5030961;28;20100;-61
2022/12/13 07:26:18;;;;;;;48.20;24.30;;;;;;;-7.75;100.00;101054.03;5031617;28;20548;-62
2022/12/13 07:28:44;;;;;;;49.03;24.77;;;;;;;-7.67;100.00;101066.31;5031347;28;20037;-60
2022/12/13 07:31:10;;;;;;;57.50;25.30;;;;;;;-7.81;100.00;101051.19;5031439;28;20029;-61
2022/12/13 07:33:36;;;;;;;52.08;25.45;;;;;;;-7.71;100.00;101073.81;5013543;28;20064;-61
2022/12/13 07:36:23;;;;;;;51.45;25.30;;;;;;;-7.63;100.00;101096.34;5013936;28;20025;-60
2022/12/13 07:38:55;;;;;;;44.85;23.85;;;;;;;-7.62;100.00;101071.66;5034073;28;20119;-61
2022/12/13 07:41:23;;;;;;;55.35;26.63;;;;;;;-7.93;100.00;101031.09;5034783;28;20036;-60
2022/12/13 07:43:48;;;;;;;54.58;26.48;;;;;;;-8.17;100.00;100990.00;5017099;28;20046;-60
2022/12/13 07:46:14;;;;;;;53.80;25.92;;;;;;;-8.02;100.00;101021.34;5034528;28;20038;-62
2022/12/13 07:48:39;;;;;;;45.22;24.58;;;;;;;-7.56;100.00;101102.59;5034365;28;20082;-62
2022/12/13 07:51:07;;;;;;;50.05;23.70;;;;;;;-7.55;100.00;101096.66;5017217;28;20200;-61
2022/12/13 07:53:33;;;;;;;53.13;25.27;;;;;;;-7.54;100.00;101099.31;5018098;28;20132;-61
2022/12/13 07:56:09;;;;;;;51.42;24.95;;;;;;;-7.55;100.00;101082.19;5017052;28;20136;-62
2022/12/13 07:58:35;;;;;;;48.10;24.90;;;;;;;-7.53;100.00;101088.25;5015687;28;20030;-61
2022/12/13 08:01:06;;;;;;;46.00;24.73;;;;;;;-7.76;100.00;101037.81;5033628;28;20171;-62
2022/12/13 08:03:31;;;;;;;50.10;26.63;;;;;;;-7.48;100.00;101096.13;5033723;28;20053;-62
2022/12/13 08:06:09;;;;;;;52.38;26.77;;;;;;;-7.46;100.00;101080.03;5033895;28;20033;-61
2022/12/13 08:08:34;;;;;;;51.75;26.08;;;;;;;-7.44;100.00;101096.31;5034204;28;20056;-61
2022/12/13 08:11:08;;;;;;;52.72;27.02;;;;;;;-7.79;100.00;101024.06;5034054;28;20455;-64
2022/12/13 08:13:34;;;;;;;56.83;26.73;;;;;;;-7.46;100.00;101085.16;5016227;28;20026;-61
2022/12/13 08:16:02;;;;;;;50.63;26.08;;;;;;;-7.81;100.00;101029.06;5034123;28;20044;-61
2022/12/13 08:18:28;;;;;;;51.45;27.25;;;;;;;-7.35;100.00;101100.09;5033963;28;20124;-61
2022/12/13 08:21:04;;;;;;;61.25;28.23;;;;;;;-7.33;100.00;101108.72;5033928;28;20128;-61
2022/12/13 08:23:32;;;;;;;53.42;26.55;;;;;;;-7.30;100.00;101103.72;5015943;28;20033;-62
2022/12/13 08:25:57;;;;;;;52.85;27.55;;;;;;;-7.29;100.00;101095.22;5033788;28;20060;-61
2022/12/13 08:28:23;;;;;;;56.92;27.38;;;;;;;-7.68;100.00;101025.38;5033970;28;20065;-62
2022/12/13 08:30:48;;;;;;;55.78;28.73;;;;;;;-7.19;100.00;101103.38;5015574;28;20455;-61
2022/12/13 08:33:14;;;;;;;55.63;28.45;;;;;;;-7.68;100.00;101008.38;5015486;28;20048;-62
2022/12/13 08:35:40;;;;;;;54.78;28.23;;;;;;;-7.51;100.00;101024.41;5015909;28;20036;-62
2022/12/13 08:38:05;;;;;;;57.10;29.83;;;;;;;-7.47;100.00;101021.16;5033632;28;20120;-63
2022/12/13 08:40:30;;;;;;;57.85;28.92;;;;;;;-6.88;100.00;101110.63;5033265;28;20121;-61
2022/12/13 08:42:55;;;;;;;60.10;30.10;;;;;;;-6.77;100.00;101114.50;5033247;28;20033;-60
2022/12/13 08:45:23;;;;;;;57.38;28.70;;;;;;;-6.64;100.00;101101.41;5032242;28;20037;-60
2022/12/13 08:47:48;;;;;;;61.97;28.80;;;;;;;-6.57;100.00;101105.97;5032186;28;20033;-61
2022/12/13 08:50:14;;;;;;;64.38;31.10;;;;;;;-6.47;100.00;101104.63;5033984;28;20099;-61
2022/12/13 08:52:39;;;;;;;57.83;28.92;;;;;;;-6.34;100.00;101110.31;5033596;28;20035;-60
2022/12/13 08:55:05;;;;;;;61.75;30.92;;;;;;;-6.28;100.00;101105.44;5033468;28;20034;-61
2022/12/13 08:57:30;;;;;;;56.65;30.48;;;;;;;-6.16;100.00;101091.34;5014497;28;20061;-61
2022/12/13 08:59:55;;;;;;;60.13;30.38;;;;;;;-6.20;100.00;101089.47;5032067;28;20420;-61
2022/12/13 09:02:21;;;;;;;55.40;31.27;;;;;;;-6.09;100.00;101094.19;5031445;28;20083;-61
2022/12/13 09:04:46;;;;;;;64.88;31.65;;;;;;;-6.37;100.00;101017.13;5013961;28;20129;-60
2022/12/13 09:07:12;;;;;;;57.90;31.20;;;;;;;-5.90;100.00;101094.09;5014380;28;20040;-62
2022/12/13 09:09:37;;;;;;;55.65;30.38;;;;;;;-5.83;100.00;101097.69;5014281;28;20070;-62
2022/12/13 09:12:03;;;;;;;55.80;31.35;;;;;;;-5.65;100.00;101124.03;5031770;28;20507;-62
2022/12/13 09:14:29;;;;;;;57.08;30.52;;;;;;;-5.86;100.00;101054.91;5014130;28;20508;-60
2022/12/13 09:16:54;;;;;;;58.05;30.98;;;;;;;-5.90;100.00;101035.16;5014111;28;20136;-61
2022/12/13 09:19:20;;;;;;;63.97;30.45;;;;;;;-5.39;100.00;101101.88;5031807;28;20473;-61
2022/12/13 09:21:46;;;;;;;60.22;29.95;;;;;;;-5.36;100.00;101097.75;5031531;28;20119;-63
2022/12/13 09:24:11;;;;;;;56.58;30.40;;;;;;;-5.30;100.00;101091.94;5032165;28;20084;-61
2022/12/13 09:26:37;;;;;;;57.33;30.02;;;;;;;-5.58;100.00;101030.25;5014357;28;20037;-60
2022/12/13 09:29:02;;;;;;;68.85;32.42;;;;;;;-5.17;100.00;101089.00;5014295;28;20072;-61
2022/12/13 09:31:28;;;;;;;59.35;31.20;;;;;;;-5.05;100.00;101103.94;5031857;28;20025;-60
2022/12/13 09:33:53;;;;;;;65.80;31.63;;;;;;;-4.93;100.00;101099.25;5013968;28;20052;-61
2022/12/13 09:36:20;;;;;;;73.65;35.28;;;;;;;-4.83;100.00;101097.00;5031802;28;20495;-60
2022/12/13 09:38:45;;;;;;;61.30;31.20;;;;;;;-4.71;100.00;101096.56;5013024;28;20102;-60
2022/12/13 09:41:21;;;;;;;68.90;31.88;;;;;;;-4.59;100.00;101104.66;5012668;28;20196;-61
2022/12/13 09:43:49;;;;;;;57.33;30.83;;;;;;;-4.48;100.00;101112.69;5013701;28;20049;-62
2022/12/13 09:46:22;;;;;;;58.03;33.25;;;;;;;-4.48;100.00;101089.56;5013940;28;20033;-60
2022/12/13 09:48:49;;;;;;;57.53;29.92;;;;;;;-4.35;100.00;101096.88;5016222;28;20065;-62
2022/12/13 09:51:15;;;;;;;56.45;30.73;;;;;;;-4.29;100.00;101109.91;5014914;28;20128;-62
2022/12/13 09:53:40;;;;;;;55.20;31.95;;;;;;;-4.79;100.00;101006.44;5013226;28;20116;-62
2022/12/13 09:56:10;;;;;;;62.00;31.88;;;;;;;-4.22;100.00;101094.72;5013689;28;20072;-61
2022/12/13 09:58:36;;;;;;;65.05;31.65;;;;;;;-4.62;100.00;101012.97;5012846;28;20037;-61
2022/12/13 10:01:04;;;;;;;57.00;31.27;;;;;;;-4.54;100.00;101013.19;5031370;28;20037;-61
2022/12/13 10:03:29;;;;;;;56.10;31.48;;;;;;;-4.02;100.00;101091.03;5013354;28;20049;-61
2022/12/13 10:06:00;;;;;;;56.95;31.75;;;;;;;-3.88;100.00;101093.16;4996942;28;20033;-61
2022/12/13 10:08:35;;;;;;;62.22;33.08;;;;;;;-3.76;100.00;101080.63;5013234;28;20110;-61
2022/12/13 10:11:01;;;;;;;54.85;31.02;;;;;;;-3.62;100.00;101075.06;5014046;28;20036;-62
2022/12/13 10:13:40;;;;;;;60.17;33.13;;;;;;;-3.79;100.00;101021.41;5013571;28;20037;-62
2022/12/13 10:16:11;;;;;;;60.25;31.48;;;;;;;-3.93;100.00;100981.56;5013945;28;20076;-61
2022/12/13 10:18:37;;;;;;;;;;;;;;;-3.30;100.00;101070.84;5013893;28;20369;-61
2022/12/13 10:21:06;;;;;;;63.15;31.27;;;;;;;-3.23;100.00;101071.84;5013274;28;19928;-63
2022/12/13 10:23:31;;;;;;;62.15;33.05;;;;;;;-3.24;100.00;101060.66;5013337;28;20022;-62
2022/12/13 10:25:57;;;;;;;58.50;32.80;;;;;;;-3.13;100.00;101064.41;5030527;28;20377;-62
2022/12/13 10:28:26;;;;;;;62.55;33.50;;;;;;;-3.10;100.00;101059.34;5013398;28;20036;-61
2022/12/13 10:30:53;;;;;;;55.15;32.38;;;;;;;-3.32;100.00;101013.28;4996401;28;20073;-62
2022/12/13 10:33:25;;;;;;;60.60;33.80;;;;;;;-3.05;100.00;101044.00;5013303;28;20041;-60
2022/12/13 10:36:30;;;;;;;61.35;35.03;;;;;;;-3.00;100.00;101043.28;4996963;28;20037;-62
2022/12/13 10:38:55;;;;;;;59.88;32.97;;;;;;;-3.38;100.00;100965.91;4999649;28;20047;-61
2022/12/13 10:41:28;;;;;;;61.28;32.90;;;;;;;-2.92;100.00;101034.03;5030962;28;20132;-61
2022/12/13 10:44:10;;;;;;;55.05;32.40;;;;;;;-2.83;100.00;101049.72;5030612;28;20038;-62
2022/12/13 10:46:38;;;;;;;51.30;30.67;;;;;;;-2.83;100.00;101031.69;5013193;28;20036;-60
2022/12/13 10:49:14;;;;;;;56.30;33.63;;;;;;;-2.89;100.00;101023.81;5030868;28;20042;-61
2022/12/13 10:51:40;;;;;;;52.72;32.55;;;;;;;-2.61;100.00;101042.53;5031120;28;20033;-61
2022/12/13 10:54:16;;;;;;;54.20;32.65;;;;;;;-2.50;100.00;101033.34;5012887;28;20025;-63
2022/12/13 10:56:50;;;;;;;54.17;33.13;;;;;;;-2.37;100.00;101027.63;5012921;28;20044;-62
2022/12/13 10:59:37;;;;;;;56.50;33.58;;;;;;;-2.23;100.00;101022.78;5030763;28;20473;-62
2022/12/13 11:02:28;;;;;;;55.22;33.10;;;;;;;-2.10;100.00;101025.63;4996363;28;20033;-61
2022/12/13 11:04:55;;;;;;;53.83;34.50;;;;;;;-2.11;100.00;101007.56;5012335;28;20041;-60
2022/12/13 11:07:26;;;;;;;55.63;34.08;;;;;;;-2.49;100.00;100942.31;4996178;28;20041;-61
2022/12/13 11:09:51;;;;;;;;;;;;;;;-1.98;100.00;101025.91;5013227;28;20117;-62
2022/12/13 11:12:25;;;;;;;51.67;32.95;;;;;;;-2.10;100.00;101005.00;5034109;28;19995;-60
2022/12/13 11:14:57;;;;;;;52.70;31.90;;;;;;;-2.02;100.00;101018.97;5016314;28;20115;-59